createdAt,value
2023-02-09T00:00:05.061Z,0.00
2023-02-09T00:01:05.047Z,0.00
2023-02-09T00:02:05.094Z,0.00
2023-02-09T00:03:05.033Z,0.00
2023-02-09T00:04:05.021Z,0.00
2023-02-09T00:05:05.004Z,0.00
2023-02-09T00:06:05.006Z,0.00
2023-02-09T00:07:04.981Z,0.00
2023-02-09T00:08:04.991Z,0.00
2023-02-09T00:09:04.964Z,0.00
2023-02-09T00:10:04.960Z,0.00
2023-02-09T00:11:04.955Z,0.00
2023-02-09T00:12:04.937Z,0.00
2023-02-09T00:13:04.934Z,0.00
2023-02-09T00:14:04.923Z,0.00
2023-02-09T00:15:04.897Z,0.00
2023-02-09T00:16:04.965Z,0.00
2023-02-09T00:17:04.889Z,0.00
2023-02-09T00:18:04.885Z,0.00
2023-02-09T00:19:04.854Z,0.00
2023-02-09T00:20:04.855Z,0.00
2023-02-09T00:21:04.834Z,0.00
2023-02-09T00:22:04.826Z,0.00
2023-02-09T00:23:04.825Z,0.00
2023-02-09T00:24:04.807Z,0.00
2023-02-09T00:25:04.924Z,0.00
2023-02-09T00:26:04.785Z,0.00
2023-02-09T00:27:04.773Z,0.00
2023-02-09T00:28:04.857Z,0.00
2023-02-09T00:29:04.758Z,0.00
2023-02-09T00:30:04.764Z,0.00
2023-02-09T00:31:04.756Z,0.00
2023-02-09T00:32:04.759Z,0.00
2023-02-09T00:33:04.720Z,0.00
2023-02-09T00:34:04.699Z,0.00
2023-02-09T00:35:04.689Z,0.00
2023-02-09T00:36:04.674Z,0.00
2023-02-09T00:37:04.664Z,0.00
2023-02-09T00:38:04.668Z,0.00
2023-02-09T00:39:04.650Z,0.00
2023-02-09T00:40:04.653Z,0.00
2023-02-09T00:41:04.626Z,0.00
2023-02-09T00:42:04.617Z,0.00
2023-02-09T00:43:04.616Z,0.00
2023-02-09T00:44:04.591Z,0.00
2023-02-09T00:45:04.578Z,0.00
2023-02-09T00:46:04.704Z,0.00
2023-02-09T00:47:04.556Z,0.00
2023-02-09T00:48:04.564Z,0.00
2023-02-09T00:49:04.542Z,0.00
2023-02-09T00:50:04.526Z,0.00
2023-02-09T00:51:04.519Z,0.00
2023-02-09T00:52:04.514Z,0.00
2023-02-09T00:53:04.511Z,0.00
2023-02-09T00:54:04.483Z,0.00
2023-02-09T00:55:04.473Z,0.00
2023-02-09T00:56:04.488Z,0.00
2023-02-09T00:57:04.455Z,0.00
2023-02-09T00:58:04.466Z,0.00
2023-02-09T00:59:04.432Z,0.00
2023-02-09T01:00:04.424Z,0.00
2023-02-09T01:01:04.458Z,0.00
2023-02-09T01:02:04.437Z,0.00
2023-02-09T01:03:04.412Z,0.00
2023-02-09T01:04:04.385Z,0.00
2023-02-09T01:05:04.397Z,0.00
2023-02-09T01:06:04.358Z,0.00
2023-02-09T01:07:04.352Z,0.00
2023-02-09T01:08:04.358Z,0.00
2023-02-09T01:09:04.330Z,0.00
2023-02-09T01:10:04.321Z,0.00
2023-02-09T01:11:04.311Z,0.00
2023-02-09T01:12:04.309Z,0.00
2023-02-09T01:13:04.303Z,0.00
2023-02-09T01:14:04.284Z,0.00
2023-02-09T01:15:04.256Z,0.00
2023-02-09T01:16:04.269Z,0.00
2023-02-09T01:17:04.311Z,0.00
2023-02-09T01:18:04.257Z,0.00
2023-02-09T01:19:04.214Z,0.00
2023-02-09T01:20:04.210Z,0.00
2023-02-09T01:21:04.192Z,0.00
2023-02-09T01:22:04.203Z,0.00
2023-02-09T01:23:04.188Z,0.00
2023-02-09T01:24:04.166Z,0.00
2023-02-09T01:25:04.157Z,0.00
2023-02-09T01:26:04.189Z,0.00
2023-02-09T01:27:04.129Z,0.00
2023-02-09T01:28:04.197Z,0.00
2023-02-09T01:29:04.106Z,0.00
2023-02-09T01:30:04.103Z,0.00
2023-02-09T01:31:04.247Z,0.00
2023-02-09T01:32:04.151Z,0.00
2023-02-09T01:33:04.080Z,0.00
2023-02-09T01:34:04.110Z,0.00
2023-02-09T01:35:04.058Z,0.00
2023-02-09T01:36:04.036Z,0.00
2023-02-09T01:37:04.029Z,0.00
2023-02-09T01:38:04.033Z,0.00
2023-02-09T01:39:04.005Z,0.00
2023-02-09T01:40:03.998Z,0.00
2023-02-09T01:41:03.984Z,0.00
2023-02-09T01:42:03.973Z,0.00
2023-02-09T01:43:03.980Z,0.00
2023-02-09T01:44:03.963Z,0.00
2023-02-09T01:45:03.963Z,0.00
2023-02-09T01:46:03.962Z,0.00
2023-02-09T01:47:03.924Z,0.00
2023-02-09T01:48:03.939Z,0.00
2023-02-09T01:49:03.909Z,0.00
2023-02-09T01:50:03.932Z,0.00
2023-02-09T01:51:03.890Z,0.00
2023-02-09T01:52:03.874Z,0.00
2023-02-09T01:53:03.891Z,0.00
2023-02-09T01:54:03.850Z,0.00
2023-02-09T01:55:03.841Z,0.00
2023-02-09T01:56:03.828Z,0.00
2023-02-09T01:57:03.826Z,0.00
2023-02-09T01:58:03.826Z,0.00
2023-02-09T01:59:03.833Z,0.00
2023-02-09T02:00:03.793Z,0.00
2023-02-09T02:01:03.850Z,0.00
2023-02-09T02:02:03.772Z,0.00
2023-02-09T02:03:03.778Z,0.00
2023-02-09T02:04:03.744Z,0.00
2023-02-09T02:05:03.737Z,0.00
2023-02-09T02:06:03.742Z,0.00
2023-02-09T02:07:03.718Z,0.00
2023-02-09T02:08:03.725Z,0.00
2023-02-09T02:09:03.697Z,0.00
2023-02-09T02:10:03.695Z,0.00
2023-02-09T02:11:03.672Z,0.00
2023-02-09T02:12:03.678Z,0.00
2023-02-09T02:13:03.677Z,0.00
2023-02-09T02:14:03.644Z,0.00
2023-02-09T02:15:03.646Z,0.00
2023-02-09T02:16:03.695Z,0.00
2023-02-09T02:17:03.617Z,0.00
2023-02-09T02:18:03.611Z,0.00
2023-02-09T02:19:03.590Z,0.00
2023-02-09T02:20:03.592Z,0.00
2023-02-09T02:21:03.564Z,0.00
2023-02-09T02:22:03.578Z,0.00
2023-02-09T02:23:03.568Z,0.00
2023-02-09T02:24:03.537Z,0.00
2023-02-09T02:25:03.524Z,0.00
2023-02-09T02:26:04.749Z,0.00
2023-02-09T02:27:03.504Z,0.00
2023-02-09T02:28:03.569Z,0.00
2023-02-09T02:29:03.482Z,0.00
2023-02-09T02:30:03.473Z,0.00
2023-02-09T02:31:03.668Z,0.00
2023-02-09T02:32:03.456Z,0.00
2023-02-09T02:33:03.462Z,0.00
2023-02-09T02:34:03.429Z,0.00
2023-02-09T02:35:03.424Z,0.00
2023-02-09T02:36:03.417Z,0.00
2023-02-09T02:37:03.418Z,0.00
2023-02-09T02:38:03.422Z,0.00
2023-02-09T02:39:03.378Z,0.00
2023-02-09T02:40:03.381Z,0.00
2023-02-09T02:41:03.360Z,0.00
2023-02-09T02:42:03.352Z,0.00
2023-02-09T02:43:03.363Z,0.00
2023-02-09T02:44:03.359Z,0.00
2023-02-09T02:45:03.322Z,0.00
2023-02-09T02:46:03.355Z,0.00
2023-02-09T02:47:03.306Z,0.00
2023-02-09T02:48:03.306Z,0.00
2023-02-09T02:49:03.277Z,0.00
2023-02-09T02:50:03.269Z,0.00
2023-02-09T02:51:03.358Z,0.00
2023-02-09T02:52:03.255Z,0.00
2023-02-09T02:53:03.260Z,0.00
2023-02-09T02:54:03.259Z,0.00
2023-02-09T02:55:03.242Z,0.00
2023-02-09T02:56:03.203Z,0.00
2023-02-09T02:57:03.200Z,0.00
2023-02-09T02:58:03.210Z,0.00
2023-02-09T02:59:03.181Z,0.00
2023-02-09T03:00:03.172Z,0.00
2023-02-09T03:01:03.173Z,0.00
2023-02-09T03:02:03.144Z,0.00
2023-02-09T03:03:03.155Z,0.00
2023-02-09T03:04:03.124Z,0.00
2023-02-09T03:05:03.247Z,0.00
2023-02-09T03:06:03.132Z,0.00
2023-02-09T03:07:03.094Z,0.00
2023-02-09T03:08:03.101Z,0.00
2023-02-09T03:09:03.076Z,0.00
2023-02-09T03:10:03.584Z,0.00
2023-02-09T03:11:03.061Z,0.00
2023-02-09T03:12:03.085Z,0.00
2023-02-09T03:13:03.050Z,0.00
2023-02-09T03:14:03.032Z,0.00
2023-02-09T03:15:03.031Z,0.00
2023-02-09T03:16:03.093Z,0.00
2023-02-09T03:17:02.996Z,0.00
2023-02-09T03:18:02.993Z,0.00
2023-02-09T03:19:02.976Z,0.00
2023-02-09T03:20:02.979Z,0.00
2023-02-09T03:21:02.950Z,0.00
2023-02-09T03:22:02.936Z,0.00
2023-02-09T03:23:02.953Z,0.00
2023-02-09T03:24:02.925Z,0.00
2023-02-09T03:25:02.913Z,0.00
2023-02-09T03:26:02.915Z,0.00
2023-02-09T03:27:02.893Z,0.00
2023-02-09T03:28:02.992Z,0.00
2023-02-09T03:29:02.897Z,0.00
2023-02-09T03:30:02.880Z,0.00
2023-02-09T03:31:02.999Z,0.00
2023-02-09T03:32:02.982Z,0.00
2023-02-09T03:33:02.832Z,0.00
2023-02-09T03:34:02.827Z,0.00
2023-02-09T03:35:02.826Z,0.00
2023-02-09T03:36:02.799Z,0.00
2023-02-09T03:37:02.794Z,0.00
2023-02-09T03:38:02.781Z,0.00
2023-02-09T03:39:02.791Z,0.00
2023-02-09T03:40:02.802Z,0.00
2023-02-09T03:41:02.769Z,0.00
2023-02-09T03:42:02.805Z,0.00
2023-02-09T03:43:02.762Z,0.00
2023-02-09T03:44:02.784Z,0.00
2023-02-09T03:45:02.745Z,0.00
2023-02-09T03:46:02.694Z,0.00
2023-02-09T03:47:02.685Z,0.00
2023-02-09T03:48:02.684Z,0.00
2023-02-09T03:49:02.693Z,0.00
2023-02-09T03:50:02.657Z,0.00
2023-02-09T03:51:02.649Z,0.00
2023-02-09T03:52:02.631Z,0.00
2023-02-09T03:53:02.632Z,0.00
2023-02-09T03:54:02.630Z,0.00
2023-02-09T03:55:02.602Z,0.00
2023-02-09T03:56:02.583Z,0.00
2023-02-09T03:57:02.581Z,0.00
2023-02-09T03:58:02.580Z,0.00
2023-02-09T03:59:02.571Z,0.00
2023-02-09T04:00:02.578Z,0.00
2023-02-09T04:01:02.557Z,0.00
2023-02-09T04:02:02.562Z,0.00
2023-02-09T04:03:02.518Z,0.00
2023-02-09T04:04:02.528Z,0.00
2023-02-09T04:05:04.719Z,0.00
2023-02-09T04:06:02.481Z,0.00
2023-02-09T04:07:02.484Z,0.00
2023-02-09T04:08:02.463Z,0.00
2023-02-09T04:09:02.483Z,0.00
2023-02-09T04:10:02.443Z,0.00
2023-02-09T04:11:02.431Z,0.00
2023-02-09T04:12:02.420Z,0.00
2023-02-09T04:13:02.420Z,0.00
2023-02-09T04:14:02.429Z,0.00
2023-02-09T04:15:02.410Z,0.00
2023-02-09T04:16:02.417Z,0.00
2023-02-09T04:17:02.366Z,0.00
2023-02-09T04:18:02.359Z,0.00
2023-02-09T04:19:02.373Z,0.00
2023-02-09T04:20:02.336Z,0.00
2023-02-09T04:21:02.327Z,0.00
2023-02-09T04:22:02.318Z,0.00
2023-02-09T04:23:02.306Z,0.00
2023-02-09T04:24:02.320Z,0.00
2023-02-09T04:25:02.294Z,0.00
2023-02-09T04:26:02.272Z,0.00
2023-02-09T04:27:02.276Z,0.00
2023-02-09T04:28:02.276Z,0.00
2023-02-09T04:29:02.272Z,0.00
2023-02-09T04:30:02.251Z,0.00
2023-02-09T04:31:02.303Z,0.00
2023-02-09T04:32:02.263Z,0.00
2023-02-09T04:33:02.209Z,0.00
2023-02-09T04:34:02.218Z,0.00
2023-02-09T04:35:02.229Z,0.00
2023-02-09T04:36:02.176Z,0.00
2023-02-09T04:37:02.171Z,0.00
2023-02-09T04:38:02.159Z,0.00
2023-02-09T04:39:02.170Z,0.00
2023-02-09T04:40:02.161Z,0.00
2023-02-09T04:41:02.136Z,0.00
2023-02-09T04:42:02.118Z,0.00
2023-02-09T04:43:02.112Z,0.00
2023-02-09T04:44:02.133Z,0.00
2023-02-09T04:45:02.092Z,0.00
2023-02-09T04:46:02.189Z,0.00
2023-02-09T04:47:02.073Z,0.00
2023-02-09T04:48:02.088Z,0.00
2023-02-09T04:49:02.057Z,0.00
2023-02-09T04:50:02.048Z,0.00
2023-02-09T04:51:02.028Z,0.00
2023-02-09T04:52:02.015Z,0.00
2023-02-09T04:53:02.011Z,0.00
2023-02-09T04:54:02.008Z,0.00
2023-02-09T04:55:01.997Z,0.00
2023-02-09T04:56:01.979Z,0.00
2023-02-09T04:57:01.964Z,0.00
2023-02-09T04:58:01.949Z,0.00
2023-02-09T04:59:08.995Z,0.00
2023-02-09T05:00:01.931Z,0.00
2023-02-09T05:01:09.919Z,0.00
2023-02-09T05:02:01.914Z,0.00
2023-02-09T05:03:01.904Z,0.00
2023-02-09T05:04:01.904Z,0.00
2023-02-09T05:05:01.905Z,0.00
2023-02-09T05:06:01.874Z,0.00
2023-02-09T05:07:01.856Z,0.00
2023-02-09T05:08:01.865Z,0.00
2023-02-09T05:09:01.864Z,0.00
2023-02-09T05:10:01.852Z,0.00
2023-02-09T05:11:01.814Z,0.00
2023-02-09T05:12:01.806Z,0.00
2023-02-09T05:13:01.797Z,0.00
2023-02-09T05:14:01.804Z,0.00
2023-02-09T05:15:01.779Z,0.00
2023-02-09T05:16:01.764Z,0.00
2023-02-09T05:17:01.932Z,0.00
2023-02-09T05:18:01.746Z,0.00
2023-02-09T05:19:01.745Z,0.00
2023-02-09T05:20:01.730Z,0.00
2023-02-09T05:21:01.712Z,0.00
2023-02-09T05:22:01.700Z,0.00
2023-02-09T05:23:01.689Z,0.00
2023-02-09T05:24:01.689Z,0.00
2023-02-09T05:25:01.672Z,0.00
2023-02-09T05:26:01.671Z,0.00
2023-02-09T05:27:01.648Z,0.00
2023-02-09T05:28:01.656Z,0.00
2023-02-09T05:29:01.661Z,0.00
2023-02-09T05:30:01.655Z,0.00
2023-02-09T05:31:01.691Z,0.00
2023-02-09T05:32:01.688Z,0.00
2023-02-09T05:33:01.600Z,0.00
2023-02-09T05:34:01.597Z,0.00
2023-02-09T05:35:01.573Z,0.00
2023-02-09T05:36:01.557Z,0.00
2023-02-09T05:37:01.545Z,0.00
2023-02-09T05:38:01.558Z,0.00
2023-02-09T05:39:01.542Z,0.00
2023-02-09T05:40:01.566Z,0.00
2023-02-09T05:41:01.537Z,0.00
2023-02-09T05:42:01.491Z,0.00
2023-02-09T05:43:01.490Z,0.00
2023-02-09T05:44:01.485Z,0.00
2023-02-09T05:45:01.470Z,0.00
2023-02-09T05:46:01.490Z,0.00
2023-02-09T05:47:01.438Z,0.00
2023-02-09T05:48:01.437Z,0.00
2023-02-09T05:49:01.457Z,0.00
2023-02-09T05:50:01.474Z,0.00
2023-02-09T05:51:01.397Z,4.00
2023-02-09T05:52:01.390Z,0.00
2023-02-09T05:53:01.376Z,0.00
2023-02-09T05:54:01.382Z,4.00
2023-02-09T05:55:01.360Z,4.00
2023-02-09T05:56:01.349Z,0.00
2023-02-09T05:57:01.334Z,4.00
2023-02-09T05:58:01.364Z,0.00
2023-02-09T05:59:02.970Z,4.00
2023-02-09T06:00:01.348Z,4.00
2023-02-09T06:01:01.293Z,4.00
2023-02-09T06:02:01.340Z,4.00
2023-02-09T06:03:01.271Z,4.00
2023-02-09T06:04:01.283Z,4.00
2023-02-09T06:05:01.279Z,8.00
2023-02-09T06:06:01.246Z,12.00
2023-02-09T06:07:01.229Z,8.00
2023-02-09T06:08:01.232Z,8.00
2023-02-09T06:09:01.214Z,12.00
2023-02-09T06:10:01.193Z,16.00
2023-02-09T06:11:01.188Z,20.00
2023-02-09T06:12:01.175Z,20.00
2023-02-09T06:13:01.160Z,28.00
2023-02-09T06:14:01.170Z,28.00
2023-02-09T06:15:01.142Z,36.00
2023-02-09T06:16:01.217Z,40.00
2023-02-09T06:17:01.123Z,44.00
2023-02-09T06:18:01.113Z,48.00
2023-02-09T06:19:01.108Z,56.00
2023-02-09T06:20:01.091Z,68.00
2023-02-09T06:21:01.112Z,76.00
2023-02-09T06:22:01.071Z,80.00
2023-02-09T06:23:01.057Z,96.00
2023-02-09T06:24:01.062Z,104.00
2023-02-09T06:25:01.034Z,116.00
2023-02-09T06:26:01.029Z,132.00
2023-02-09T06:27:01.023Z,144.00
2023-02-09T06:28:01.052Z,156.00
2023-02-09T06:29:01.004Z,176.00
2023-02-09T06:30:01.020Z,192.00
2023-02-09T06:31:01.102Z,212.00
2023-02-09T06:32:01.065Z,228.00
2023-02-09T06:33:00.962Z,248.00
2023-02-09T06:34:00.958Z,272.00
2023-02-09T06:35:00.938Z,296.00
2023-02-09T06:36:00.927Z,316.00
2023-02-09T06:37:00.931Z,340.00
2023-02-09T06:38:00.904Z,368.00
2023-02-09T06:39:00.906Z,396.00
2023-02-09T06:40:00.895Z,432.00
2023-02-09T06:41:00.873Z,500.00
2023-02-09T06:42:00.862Z,512.00
2023-02-09T06:43:00.873Z,564.00
2023-02-09T06:44:00.864Z,632.00
2023-02-09T06:45:00.827Z,712.00
2023-02-09T06:46:00.851Z,760.00
2023-02-09T06:47:00.808Z,784.00
2023-02-09T06:48:00.803Z,844.00
2023-02-09T06:49:00.801Z,956.00
2023-02-09T06:50:00.990Z,1060.00
2023-02-09T06:51:00.780Z,1152.00
2023-02-09T06:52:00.761Z,1248.00
2023-02-09T06:53:00.772Z,1404.00
2023-02-09T06:54:00.749Z,1520.00
2023-02-09T06:55:00.734Z,1656.00
2023-02-09T06:56:00.719Z,1784.00
2023-02-09T06:57:00.732Z,2016.00
2023-02-09T06:58:00.697Z,2216.00
2023-02-09T06:59:00.685Z,2432.00
2023-02-09T07:00:00.696Z,2896.00
2023-02-09T07:01:00.674Z,3268.00
2023-02-09T07:02:00.683Z,3496.00
2023-02-09T07:03:00.741Z,3848.00
2023-02-09T07:04:00.664Z,4344.00
2023-02-09T07:05:00.637Z,4644.00
2023-02-09T07:06:00.615Z,4564.00
2023-02-09T07:07:00.601Z,3360.00
2023-02-09T07:08:00.590Z,3312.00
2023-02-09T07:09:00.611Z,5100.00
2023-02-09T07:10:00.595Z,6688.00
2023-02-09T07:11:00.560Z,5592.00
2023-02-09T07:12:00.546Z,5504.00
2023-02-09T07:13:00.541Z,7200.00
2023-02-09T07:14:00.528Z,6536.00
2023-02-09T07:15:00.530Z,6740.00
2023-02-09T07:16:00.606Z,6668.00
2023-02-09T07:17:00.494Z,7936.00
2023-02-09T07:18:00.486Z,9216.00
2023-02-09T07:19:00.573Z,8832.00
2023-02-09T07:20:00.478Z,7104.00
2023-02-09T07:21:00.453Z,6548.00
2023-02-09T07:22:00.441Z,8036.00
2023-02-09T07:23:00.444Z,8672.00
2023-02-09T07:24:00.428Z,11040.00
2023-02-09T07:25:00.448Z,13184.00
2023-02-09T07:26:00.397Z,12960.00
2023-02-09T07:27:00.390Z,12448.00
2023-02-09T07:28:00.414Z,12096.00
2023-02-09T07:29:00.364Z,11616.00
2023-02-09T07:30:01.182Z,13440.00
2023-02-09T07:31:00.410Z,14144.00
2023-02-09T07:32:00.437Z,14816.00
2023-02-09T07:33:00.325Z,14944.00
2023-02-09T07:34:00.316Z,15808.00
2023-02-09T07:35:00.307Z,17312.00
2023-02-09T07:36:00.293Z,18496.00
2023-02-09T07:37:00.273Z,17920.00
2023-02-09T07:38:00.264Z,18080.00
2023-02-09T07:39:00.258Z,18848.00
2023-02-09T07:40:00.271Z,18560.00
2023-02-09T07:41:00.252Z,18720.00
2023-02-09T07:42:00.225Z,20672.00
2023-02-09T07:43:00.209Z,22016.00
2023-02-09T07:44:00.218Z,23264.00
2023-02-09T07:45:00.209Z,24064.00
2023-02-09T07:46:00.182Z,25184.00
2023-02-09T07:47:00.170Z,25568.00
2023-02-09T07:48:00.165Z,25984.00
2023-02-09T07:49:01.507Z,27200.00
2023-02-09T07:50:00.175Z,27904.00
2023-02-09T07:51:00.136Z,28000.00
2023-02-09T07:52:00.127Z,28864.00
2023-02-09T07:53:00.131Z,29568.00
2023-02-09T07:54:00.138Z,29536.00
2023-02-09T07:55:00.116Z,30240.00
2023-02-09T07:56:00.093Z,31008.00
2023-02-09T07:57:00.112Z,32000.00
2023-02-09T07:58:00.076Z,33664.00
2023-02-09T07:59:00.029Z,34816.00
2023-02-09T08:00:00.042Z,35520.00
2023-02-09T08:01:00.004Z,35008.00
2023-02-09T08:02:00.046Z,35200.00
2023-02-09T08:02:59.985Z,38080.00
2023-02-09T08:03:59.979Z,37920.00
2023-02-09T08:05:00.063Z,37440.00
2023-02-09T08:05:59.955Z,38432.00
2023-02-09T08:06:59.945Z,39968.00
2023-02-09T08:07:59.932Z,40288.00
2023-02-09T08:08:59.919Z,40192.00
2023-02-09T08:09:59.924Z,41088.00
2023-02-09T08:10:59.903Z,42848.00
2023-02-09T08:11:59.935Z,44256.00
2023-02-09T08:12:59.904Z,45920.00
2023-02-09T08:13:59.938Z,45120.00
2023-02-09T08:14:59.878Z,43776.00
2023-02-09T08:15:59.862Z,39808.00
2023-02-09T08:16:59.845Z,39456.00
2023-02-09T08:17:59.826Z,35232.00
2023-02-09T08:18:59.811Z,32448.00
2023-02-09T08:19:59.815Z,35104.00
2023-02-09T08:20:59.791Z,38272.00
2023-02-09T08:21:59.785Z,40032.00
2023-02-09T08:22:59.769Z,38688.00
2023-02-09T08:23:59.830Z,36544.00
2023-02-09T08:24:59.766Z,35424.00
2023-02-09T08:25:59.743Z,33472.00
2023-02-09T08:26:59.746Z,25248.00
2023-02-09T08:27:59.751Z,23584.00
2023-02-09T08:28:59.844Z,28032.00
2023-02-09T08:29:59.703Z,30912.00
2023-02-09T08:30:59.731Z,29600.00
2023-02-09T08:31:59.761Z,31936.00
2023-02-09T08:32:59.657Z,39680.00
2023-02-09T08:33:59.649Z,41440.00
2023-02-09T08:34:59.651Z,37888.00
2023-02-09T08:35:59.626Z,36128.00
2023-02-09T08:36:59.619Z,38464.00
2023-02-09T08:37:59.608Z,41408.00
2023-02-09T08:38:59.601Z,43168.00
2023-02-09T08:39:59.593Z,47520.00
2023-02-09T08:40:59.574Z,45632.00
2023-02-09T08:41:59.561Z,40768.00
2023-02-09T08:42:59.556Z,36288.00
2023-02-09T08:43:59.559Z,32096.00
2023-02-09T08:44:59.556Z,22304.00
2023-02-09T08:45:59.602Z,12900.00
2023-02-09T08:46:59.688Z,7704.00
2023-02-09T08:47:59.496Z,14276.00
2023-02-09T08:48:59.484Z,36288.00
2023-02-09T08:49:59.494Z,31136.00
2023-02-09T08:50:59.472Z,27008.00
2023-02-09T08:51:59.460Z,28832.00
2023-02-09T08:52:59.440Z,27392.00
2023-02-09T08:53:59.439Z,38656.00
2023-02-09T08:54:59.433Z,49216.00
2023-02-09T08:55:59.409Z,37056.00
2023-02-09T08:56:59.397Z,28192.00
2023-02-09T08:57:59.392Z,29728.00
2023-02-09T08:58:59.378Z,25664.00
2023-02-09T08:59:59.380Z,13064.00
2023-02-09T09:00:59.422Z,15568.00
2023-02-09T09:01:59.344Z,10896.00
2023-02-09T09:02:59.356Z,7996.00
2023-02-09T09:03:59.450Z,18816.00
2023-02-09T09:04:59.331Z,27424.00
2023-02-09T09:05:59.309Z,26336.00
2023-02-09T09:06:59.289Z,27168.00
2023-02-09T09:07:59.282Z,28032.00
2023-02-09T09:08:59.268Z,21760.00
2023-02-09T09:09:59.303Z,13640.00
2023-02-09T09:10:59.283Z,12720.00
2023-02-09T09:11:59.249Z,12524.00
2023-02-09T09:12:59.222Z,24992.00
2023-02-09T09:13:59.285Z,39168.00
2023-02-09T09:14:59.212Z,42272.00
2023-02-09T09:15:59.200Z,33888.00
2023-02-09T09:16:59.268Z,30304.00
2023-02-09T09:17:59.171Z,33792.00
2023-02-09T09:18:59.160Z,33248.00
2023-02-09T09:19:59.164Z,34496.00
2023-02-09T09:20:59.138Z,38848.00
2023-02-09T09:21:59.145Z,41568.00
2023-02-09T09:22:59.113Z,45856.00
2023-02-09T09:23:59.105Z,51296.00
2023-02-09T09:24:59.112Z,46528.00
2023-02-09T09:25:59.086Z,49664.00
2023-02-09T09:26:59.070Z,52640.00
2023-02-09T09:27:59.093Z,56160.00
2023-02-09T09:28:59.054Z,56224.00
2023-02-09T09:29:59.052Z,54944.00
2023-02-09T09:30:59.087Z,50048.00
2023-02-09T09:31:59.068Z,59552.00
2023-02-09T09:32:59.096Z,63744.00
2023-02-09T09:33:58.996Z,65216.00
2023-02-09T09:34:58.998Z,64448.00
2023-02-09T09:35:58.973Z,61984.00
2023-02-09T09:36:58.961Z,62752.00
2023-02-09T09:37:58.955Z,67552.00
2023-02-09T09:38:58.941Z,68032.00
2023-02-09T09:39:59.060Z,72352.00
2023-02-09T09:40:58.924Z,71552.00
2023-02-09T09:41:58.910Z,70592.00
2023-02-09T09:42:58.904Z,70816.00
2023-02-09T09:43:58.887Z,67456.00
2023-02-09T09:44:58.882Z,60064.00
2023-02-09T09:45:58.885Z,56960.00
2023-02-09T09:46:58.850Z,57152.00
2023-02-09T09:47:58.843Z,55648.00
2023-02-09T09:48:58.850Z,54752.00
2023-02-09T09:49:58.833Z,56192.00
2023-02-09T09:50:58.815Z,56864.00
2023-02-09T09:51:58.796Z,61568.00
2023-02-09T09:52:58.787Z,64096.00
2023-02-09T09:53:58.776Z,69792.00
2023-02-09T09:54:58.778Z,69856.00
2023-02-09T09:55:58.842Z,68096.00
2023-02-09T09:56:58.741Z,72096.00
2023-02-09T09:57:58.804Z,71328.00
2023-02-09T09:58:58.719Z,74368.00
2023-02-09T09:59:58.718Z,74176.00
2023-02-09T10:00:58.756Z,74176.00
2023-02-09T10:01:58.682Z,74624.00
2023-02-09T10:02:58.675Z,73408.00
2023-02-09T10:03:58.662Z,74976.00
2023-02-09T10:04:58.768Z,72704.00
2023-02-09T10:05:58.640Z,68384.00
2023-02-09T10:06:58.640Z,69600.00
2023-02-09T10:07:58.621Z,69312.00
2023-02-09T10:08:58.624Z,71040.00
2023-02-09T10:09:58.608Z,69888.00
2023-02-09T10:10:58.593Z,73216.00
2023-02-09T10:11:58.636Z,72192.00
2023-02-09T10:12:58.570Z,68256.00
2023-02-09T10:13:58.564Z,69440.00
2023-02-09T10:14:58.559Z,68416.00
2023-02-09T10:15:58.533Z,70880.00
2023-02-09T10:16:58.578Z,72224.00
2023-02-09T10:17:58.512Z,72064.00
2023-02-09T10:18:58.504Z,75264.00
2023-02-09T10:19:58.498Z,75392.00
2023-02-09T10:20:58.504Z,74176.00
2023-02-09T10:21:58.469Z,73472.00
2023-02-09T10:22:58.471Z,73792.00
2023-02-09T10:23:58.444Z,73696.00
2023-02-09T10:24:58.452Z,74080.00
2023-02-09T10:25:58.430Z,72896.00
2023-02-09T10:26:58.412Z,73088.00
2023-02-09T10:27:58.434Z,72800.00
2023-02-09T10:28:58.407Z,72608.00
2023-02-09T10:29:58.384Z,71936.00
2023-02-09T10:30:58.534Z,70912.00
2023-02-09T10:31:58.409Z,71040.00
2023-02-09T10:32:58.365Z,70432.00
2023-02-09T10:33:58.348Z,72064.00
2023-02-09T10:34:58.322Z,74272.00
2023-02-09T10:35:58.325Z,72448.00
2023-02-09T10:36:58.323Z,75776.00
2023-02-09T10:37:58.287Z,74016.00
2023-02-09T10:38:58.316Z,73152.00
2023-02-09T10:39:58.266Z,69312.00
2023-02-09T10:40:58.267Z,69824.00
2023-02-09T10:41:58.248Z,73152.00
2023-02-09T10:42:58.235Z,72096.00
2023-02-09T10:43:58.226Z,71456.00
2023-02-09T10:44:58.213Z,71744.00
2023-02-09T10:45:58.226Z,71040.00
2023-02-09T10:46:58.193Z,51296.00
2023-02-09T10:47:58.177Z,18816.00
2023-02-09T10:48:58.169Z,9688.00
2023-02-09T10:49:58.158Z,8612.00
2023-02-09T10:50:58.168Z,8188.00
2023-02-09T10:51:58.131Z,7924.00
2023-02-09T10:52:58.142Z,7684.00
2023-02-09T10:53:58.121Z,7632.00
2023-02-09T10:54:58.127Z,7396.00
2023-02-09T10:55:58.104Z,7220.00
2023-02-09T10:56:58.082Z,7188.00
2023-02-09T10:57:58.069Z,7040.00
2023-02-09T10:59:56.343Z,6804.00
2023-02-09T11:00:56.312Z,6620.00
2023-02-09T11:01:56.293Z,6448.00
2023-02-09T11:02:56.280Z,6268.00
2023-02-09T11:03:56.402Z,6324.00
2023-02-09T11:04:56.263Z,6340.00
2023-02-09T11:05:56.263Z,6368.00
2023-02-09T11:06:56.242Z,6292.00
2023-02-09T11:07:56.239Z,6280.00
2023-02-09T11:08:56.234Z,6312.00
2023-02-09T11:09:56.208Z,6312.00
2023-02-09T11:10:56.212Z,6168.00
2023-02-09T11:11:56.207Z,6136.00
2023-02-09T11:12:56.178Z,6028.00
2023-02-09T11:13:56.180Z,5944.00
2023-02-09T11:14:56.153Z,5916.00
2023-02-09T11:15:56.183Z,5880.00
2023-02-09T11:16:56.140Z,5884.00
2023-02-09T11:17:56.132Z,5876.00
2023-02-09T11:18:56.112Z,5832.00
2023-02-09T11:19:56.162Z,5796.00
2023-02-09T11:20:56.102Z,5748.00
2023-02-09T11:21:56.094Z,5704.00
2023-02-09T11:22:56.075Z,5696.00
2023-02-09T11:23:56.076Z,5648.00
2023-02-09T11:24:56.079Z,5624.00
2023-02-09T11:25:56.048Z,5608.00
2023-02-09T11:26:56.032Z,5568.00
2023-02-09T11:27:56.058Z,5560.00
2023-02-09T11:28:56.012Z,5508.00
2023-02-09T11:29:56.012Z,5488.00
2023-02-09T11:30:56.149Z,5416.00
2023-02-09T11:31:56.083Z,5348.00
2023-02-09T11:32:55.969Z,5364.00
2023-02-09T11:33:55.950Z,5424.00
2023-02-09T11:34:55.939Z,5436.00
2023-02-09T11:35:55.959Z,5388.00
2023-02-09T11:36:55.917Z,5416.00
2023-02-09T11:37:55.928Z,5388.00
2023-02-09T11:38:55.917Z,5372.00
2023-02-09T11:39:55.903Z,5312.00
2023-02-09T11:40:55.902Z,5256.00
2023-02-09T11:41:55.863Z,5120.00
2023-02-09T11:42:55.857Z,5164.00
2023-02-09T11:43:55.843Z,5148.00
2023-02-09T11:44:55.832Z,5176.00
2023-02-09T11:45:55.847Z,5156.00
2023-02-09T11:46:55.808Z,5196.00
2023-02-09T11:47:55.802Z,5200.00
2023-02-09T11:48:55.789Z,5164.00
2023-02-09T11:49:55.794Z,5208.00
2023-02-09T11:50:55.781Z,5180.00
2023-02-09T11:51:55.758Z,5100.00
2023-02-09T11:52:55.743Z,5064.00
2023-02-09T11:53:55.747Z,4976.00
2023-02-09T11:54:55.725Z,4964.00
2023-02-09T11:55:55.749Z,4924.00
2023-02-09T11:56:55.719Z,4892.00
2023-02-09T11:57:55.694Z,4872.00
2023-02-09T11:58:55.689Z,4852.00
2023-02-09T11:59:55.677Z,4832.00
2023-02-09T12:01:06.825Z,4776.00
2023-02-09T12:01:56.650Z,4740.00
2023-02-09T12:02:55.770Z,4672.00
2023-02-09T12:03:55.627Z,4636.00
2023-02-09T12:04:55.621Z,4656.00
2023-02-09T12:05:55.664Z,4636.00
2023-02-09T12:06:55.778Z,4592.00
2023-02-09T12:07:55.587Z,4584.00
2023-02-09T12:08:55.585Z,4600.00
2023-02-09T12:09:55.574Z,4560.00
2023-02-09T12:10:55.571Z,4468.00
2023-02-09T12:11:55.579Z,4436.00
2023-02-09T12:12:55.546Z,4400.00
2023-02-09T12:13:55.520Z,4348.00
2023-02-09T12:14:55.507Z,4368.00
2023-02-09T12:15:55.520Z,4316.00
2023-02-09T12:16:55.492Z,4236.00
2023-02-09T12:17:55.477Z,4172.00
2023-02-09T12:18:55.464Z,4108.00
2023-02-09T12:19:55.457Z,4020.00
2023-02-09T12:20:55.456Z,3980.00
2023-02-09T12:21:55.444Z,3956.00
2023-02-09T12:22:55.448Z,3912.00
2023-02-09T12:23:55.424Z,3916.00
2023-02-09T12:24:55.448Z,3876.00
2023-02-09T12:25:55.414Z,3908.00
2023-02-09T12:26:55.381Z,3840.00
2023-02-09T12:27:55.407Z,3888.00
2023-02-09T12:28:55.374Z,3840.00
2023-02-09T12:29:55.382Z,3832.00
2023-02-09T12:30:55.454Z,3808.00
2023-02-09T12:31:55.394Z,3720.00
2023-02-09T12:32:55.333Z,3644.00
2023-02-09T12:33:55.303Z,3596.00
2023-02-09T12:34:55.295Z,3476.00